sensor_id;sensor_type;location;lat;lon;timestamp;temperature;humidity
22224;DHT22;11281;52.194;21.006;2023-07-20T00:00:47;14.90;99.90
22224;DHT22;11281;52.194;21.006;2023-07-20T00:04:51;15.00;99.90
22224;DHT22;11281;52.194;21.006;2023-07-20T00:08:53;15.00;99.90
22224;DHT22;11281;52.194;21.006;2023-07-20T00:12:58;15.00;99.90
22224;DHT22;11281;52.194;21.006;2023-07-20T00:17:00;15.10;99.90
22224;DHT22;11281;52.194;21.006;2023-07-20T00:21:01;15.20;99.90
22224;DHT22;11281;52.194;21.006;2023-07-20T00:25:04;15.20;99.90
22224;DHT22;11281;52.194;21.006;2023-07-20T00:29:06;15.10;99.90
22224;DHT22;11281;52.194;21.006;2023-07-20T00:33:10;15.10;99.90
22224;DHT22;11281;52.194;21.006;2023-07-20T00:37:13;15.00;99.90
22224;DHT22;11281;52.194;21.006;2023-07-20T00:41:14;14.90;99.90
22224;DHT22;11281;52.194;21.006;2023-07-20T00:45:16;14.90;99.90
22224;DHT22;11281;52.194;21.006;2023-07-20T00:49:17;15.10;99.90
22224;DHT22;11281;52.194;21.006;2023-07-20T00:53:22;15.00;99.90
22224;DHT22;11281;52.194;21.006;2023-07-20T00:57:24;15.20;99.90
22224;DHT22;11281;52.194;21.006;2023-07-20T01:01:27;15.30;99.90
22224;DHT22;11281;52.194;21.006;2023-07-20T01:05:38;15.30;99.90
22224;DHT22;11281;52.194;21.006;2023-07-20T01:13:55;15.20;99.90
22224;DHT22;11281;52.194;21.006;2023-07-20T01:17:57;15.30;99.90
22224;DHT22;11281;52.194;21.006;2023-07-20T01:35:10;15.40;99.90
22224;DHT22;11281;52.194;21.006;2023-07-20T01:39:15;15.40;99.90
22224;DHT22;11281;52.194;21.006;2023-07-20T01:43:18;15.40;99.90
22224;DHT22;11281;52.194;21.006;2023-07-20T01:47:20;15.40;99.90
22224;DHT22;11281;52.194;21.006;2023-07-20T01:51:22;15.30;99.90
22224;DHT22;11281;52.194;21.006;2023-07-20T01:55:24;15.20;99.90
22224;DHT22;11281;52.194;21.006;2023-07-20T01:59:26;15.30;99.90
22224;DHT22;11281;52.194;21.006;2023-07-20T02:03:28;15.20;99.90
22224;DHT22;11281;52.194;21.006;2023-07-20T02:07:29;15.20;99.90
22224;DHT22;11281;52.194;21.006;2023-07-20T02:11:31;15.20;99.90
22224;DHT22;11281;52.194;21.006;2023-07-20T02:15:33;15.30;99.90
22224;DHT22;11281;52.194;21.006;2023-07-20T02:19:36;15.30;99.90
22224;DHT22;11281;52.194;21.006;2023-07-20T02:23:38;15.30;99.90
22224;DHT22;11281;52.194;21.006;2023-07-20T02:27:39;15.40;99.90
22224;DHT22;11281;52.194;21.006;2023-07-20T02:31:42;15.30;99.90
22224;DHT22;11281;52.194;21.006;2023-07-20T02:35:44;15.40;99.90
22224;DHT22;11281;52.194;21.006;2023-07-20T02:39:46;15.30;99.90
22224;DHT22;11281;52.194;21.006;2023-07-20T02:43:47;15.30;99.90
22224;DHT22;11281;52.194;21.006;2023-07-20T02:47:49;15.30;99.90
22224;DHT22;11281;52.194;21.006;2023-07-20T02:51:51;15.40;99.90
22224;DHT22;11281;52.194;21.006;2023-07-20T02:55:53;15.40;99.90
22224;DHT22;11281;52.194;21.006;2023-07-20T02:59:54;15.40;99.90
22224;DHT22;11281;52.194;21.006;2023-07-20T03:03:56;15.40;99.90
22224;DHT22;11281;52.194;21.006;2023-07-20T03:07:58;15.40;99.90
22224;DHT22;11281;52.194;21.006;2023-07-20T03:12:04;15.30;99.90
22224;DHT22;11281;52.194;21.006;2023-07-20T03:16:06;15.30;99.90
22224;DHT22;11281;52.194;21.006;2023-07-20T03:20:12;15.40;99.90
22224;DHT22;11281;52.194;21.006;2023-07-20T03:24:14;15.40;99.90
22224;DHT22;11281;52.194;21.006;2023-07-20T03:28:16;15.50;99.90
22224;DHT22;11281;52.194;21.006;2023-07-20T03:32:18;15.50;99.90
22224;DHT22;11281;52.194;21.006;2023-07-20T03:36:20;15.50;99.90
22224;DHT22;11281;52.194;21.006;2023-07-20T03:40:22;15.40;99.90
22224;DHT22;11281;52.194;21.006;2023-07-20T03:44:24;15.40;99.90
22224;DHT22;11281;52.194;21.006;2023-07-20T03:48:26;15.40;99.90
22224;DHT22;11281;52.194;21.006;2023-07-20T03:52:27;15.40;99.90
22224;DHT22;11281;52.194;21.006;2023-07-20T03:56:30;15.30;99.90
22224;DHT22;11281;52.194;21.006;2023-07-20T04:00:36;15.40;99.90
22224;DHT22;11281;52.194;21.006;2023-07-20T04:04:37;15.30;99.90
22224;DHT22;11281;52.194;21.006;2023-07-20T04:08:39;15.30;99.90
22224;DHT22;11281;52.194;21.006;2023-07-20T04:12:41;15.40;99.90
22224;DHT22;11281;52.194;21.006;2023-07-20T04:16:46;15.40;99.90
22224;DHT22;11281;52.194;21.006;2023-07-20T04:20:48;15.40;99.90
22224;DHT22;11281;52.194;21.006;2023-07-20T04:24:49;15.40;99.90
22224;DHT22;11281;52.194;21.006;2023-07-20T04:28:51;15.50;99.90
22224;DHT22;11281;52.194;21.006;2023-07-20T04:32:54;15.50;99.90
22224;DHT22;11281;52.194;21.006;2023-07-20T04:36:55;15.50;99.90
22224;DHT22;11281;52.194;21.006;2023-07-20T04:40:57;15.40;99.90
22224;DHT22;11281;52.194;21.006;2023-07-20T04:45:00;15.30;99.90
22224;DHT22;11281;52.194;21.006;2023-07-20T04:49:03;15.30;99.90
22224;DHT22;11281;52.194;21.006;2023-07-20T04:53:04;15.20;99.90
22224;DHT22;11281;52.194;21.006;2023-07-20T04:57:11;15.30;99.90
22224;DHT22;11281;52.194;21.006;2023-07-20T05:01:14;15.30;99.90
22224;DHT22;11281;52.194;21.006;2023-07-20T05:05:16;15.40;99.90
22224;DHT22;11281;52.194;21.006;2023-07-20T05:09:18;15.40;99.90
22224;DHT22;11281;52.194;21.006;2023-07-20T05:13:20;15.50;99.90
22224;DHT22;11281;52.194;21.006;2023-07-20T05:17:22;15.50;99.90
22224;DHT22;11281;52.194;21.006;2023-07-20T05:21:24;15.60;99.90
22224;DHT22;11281;52.194;21.006;2023-07-20T05:25:26;15.80;99.90
22224;DHT22;11281;52.194;21.006;2023-07-20T05:29:27;15.90;99.90
22224;DHT22;11281;52.194;21.006;2023-07-20T05:33:30;15.90;99.90
22224;DHT22;11281;52.194;21.006;2023-07-20T05:37:32;16.00;99.90
22224;DHT22;11281;52.194;21.006;2023-07-20T05:41:33;16.10;99.90
22224;DHT22;11281;52.194;21.006;2023-07-20T05:45:35;16.10;99.90
22224;DHT22;11281;52.194;21.006;2023-07-20T05:49:37;16.10;99.90
22224;DHT22;11281;52.194;21.006;2023-07-20T05:53:39;16.20;99.90
22224;DHT22;11281;52.194;21.006;2023-07-20T05:57:41;16.00;99.90
22224;DHT22;11281;52.194;21.006;2023-07-20T06:01:45;16.00;99.90
22224;DHT22;11281;52.194;21.006;2023-07-20T06:05:46;16.00;99.90
22224;DHT22;11281;52.194;21.006;2023-07-20T06:09:48;16.00;99.90
22224;DHT22;11281;52.194;21.006;2023-07-20T06:13:50;15.90;99.90
22224;DHT22;11281;52.194;21.006;2023-07-20T06:17:51;15.90;99.90
22224;DHT22;11281;52.194;21.006;2023-07-20T06:21:55;15.90;99.90
22224;DHT22;11281;52.194;21.006;2023-07-20T06:25:57;15.90;99.90
22224;DHT22;11281;52.194;21.006;2023-07-20T06:29:59;15.90;99.90
22224;DHT22;11281;52.194;21.006;2023-07-20T06:34:01;15.90;99.90
22224;DHT22;11281;52.194;21.006;2023-07-20T06:38:03;15.90;99.90
22224;DHT22;11281;52.194;21.006;2023-07-20T06:42:05;16.00;99.90
22224;DHT22;11281;52.194;21.006;2023-07-20T06:46:07;16.10;99.90
22224;DHT22;11281;52.194;21.006;2023-07-20T06:50:09;16.20;99.90
22224;DHT22;11281;52.194;21.006;2023-07-20T06:54:11;16.30;99.90
22224;DHT22;11281;52.194;21.006;2023-07-20T06:58:12;16.20;99.90
22224;DHT22;11281;52.194;21.006;2023-07-20T07:02:14;16.20;99.90
22224;DHT22;11281;52.194;21.006;2023-07-20T07:06:16;16.20;99.90
22224;DHT22;11281;52.194;21.006;2023-07-20T07:10:18;16.20;99.90
22224;DHT22;11281;52.194;21.006;2023-07-20T07:14:20;16.10;99.90
22224;DHT22;11281;52.194;21.006;2023-07-20T07:18:22;16.10;99.90
22224;DHT22;11281;52.194;21.006;2023-07-20T07:22:26;16.10;99.90
22224;DHT22;11281;52.194;21.006;2023-07-20T07:26:27;16.00;99.90
22224;DHT22;11281;52.194;21.006;2023-07-20T07:30:29;16.10;99.90
22224;DHT22;11281;52.194;21.006;2023-07-20T07:34:31;15.90;99.90
22224;DHT22;11281;52.194;21.006;2023-07-20T07:38:35;15.90;99.90
22224;DHT22;11281;52.194;21.006;2023-07-20T07:42:37;15.80;99.90
22224;DHT22;11281;52.194;21.006;2023-07-20T07:46:38;15.90;99.90
22224;DHT22;11281;52.194;21.006;2023-07-20T07:50:40;15.80;99.90
22224;DHT22;11281;52.194;21.006;2023-07-20T07:54:42;15.70;99.90
22224;DHT22;11281;52.194;21.006;2023-07-20T07:58:44;15.90;99.90
22224;DHT22;11281;52.194;21.006;2023-07-20T08:02:46;15.80;99.90
22224;DHT22;11281;52.194;21.006;2023-07-20T08:06:49;15.90;99.90
22224;DHT22;11281;52.194;21.006;2023-07-20T08:10:53;15.80;99.90
22224;DHT22;11281;52.194;21.006;2023-07-20T08:14:56;15.70;99.90
22224;DHT22;11281;52.194;21.006;2023-07-20T08:18:59;15.70;99.90
22224;DHT22;11281;52.194;21.006;2023-07-20T08:23:01;15.90;99.90
22224;DHT22;11281;52.194;21.006;2023-07-20T08:27:03;16.00;99.90
22224;DHT22;11281;52.194;21.006;2023-07-20T08:31:06;15.90;99.90
22224;DHT22;11281;52.194;21.006;2023-07-20T08:35:08;15.90;99.90
22224;DHT22;11281;52.194;21.006;2023-07-20T08:39:10;15.80;99.90
22224;DHT22;11281;52.194;21.006;2023-07-20T08:43:12;15.80;99.90
22224;DHT22;11281;52.194;21.006;2023-07-20T08:47:16;16.00;99.90
22224;DHT22;11281;52.194;21.006;2023-07-20T08:51:19;16.00;99.90
22224;DHT22;11281;52.194;21.006;2023-07-20T08:55:21;16.10;99.90
22224;DHT22;11281;52.194;21.006;2023-07-20T08:59:25;16.50;99.90
22224;DHT22;11281;52.194;21.006;2023-07-20T09:03:29;16.70;99.90
22224;DHT22;11281;52.194;21.006;2023-07-20T09:07:31;16.90;99.90
22224;DHT22;11281;52.194;21.006;2023-07-20T09:11:33;17.10;99.90
22224;DHT22;11281;52.194;21.006;2023-07-20T09:15:34;17.40;99.90
22224;DHT22;11281;52.194;21.006;2023-07-20T09:19:36;17.30;99.90
22224;DHT22;11281;52.194;21.006;2023-07-20T09:23:38;17.10;99.90
22224;DHT22;11281;52.194;21.006;2023-07-20T09:27:44;17.00;99.90
22224;DHT22;11281;52.194;21.006;2023-07-20T09:32:03;16.80;99.90
22224;DHT22;11281;52.194;21.006;2023-07-20T09:36:05;17.00;99.90
22224;DHT22;11281;52.194;21.006;2023-07-20T09:40:07;16.80;99.90
22224;DHT22;11281;52.194;21.006;2023-07-20T09:44:13;16.90;99.90
22224;DHT22;11281;52.194;21.006;2023-07-20T09:48:16;17.00;99.90
22224;DHT22;11281;52.194;21.006;2023-07-20T09:52:18;17.10;99.90
22224;DHT22;11281;52.194;21.006;2023-07-20T09:56:21;17.50;99.90
22224;DHT22;11281;52.194;21.006;2023-07-20T10:00:24;17.80;99.90
22224;DHT22;11281;52.194;21.006;2023-07-20T10:04:26;18.20;99.90
22224;DHT22;11281;52.194;21.006;2023-07-20T10:08:31;18.20;99.90
22224;DHT22;11281;52.194;21.006;2023-07-20T10:12:35;18.10;99.90
22224;DHT22;11281;52.194;21.006;2023-07-20T10:16:39;17.70;99.90
22224;DHT22;11281;52.194;21.006;2023-07-20T10:20:51;18.40;99.90
22224;DHT22;11281;52.194;21.006;2023-07-20T10:24:54;18.20;99.90
22224;DHT22;11281;52.194;21.006;2023-07-20T10:28:56;18.20;99.90
22224;DHT22;11281;52.194;21.006;2023-07-20T10:32:58;18.30;99.90
22224;DHT22;11281;52.194;21.006;2023-07-20T10:37:04;18.50;99.90
22224;DHT22;11281;52.194;21.006;2023-07-20T10:41:29;18.60;99.90
22224;DHT22;11281;52.194;21.006;2023-07-20T10:45:45;18.20;99.90
22224;DHT22;11281;52.194;21.006;2023-07-20T10:50:02;19.10;99.90
22224;DHT22;11281;52.194;21.006;2023-07-20T10:54:08;19.20;99.90
22224;DHT22;11281;52.194;21.006;2023-07-20T10:58:18;18.90;99.90
22224;DHT22;11281;52.194;21.006;2023-07-20T11:02:24;19.10;99.90
22224;DHT22;11281;52.194;21.006;2023-07-20T11:10:28;19.20;99.90
22224;DHT22;11281;52.194;21.006;2023-07-20T11:14:30;19.70;99.90
22224;DHT22;11281;52.194;21.006;2023-07-20T11:18:35;20.00;99.90
22224;DHT22;11281;52.194;21.006;2023-07-20T11:22:41;20.60;99.90
22224;DHT22;11281;52.194;21.006;2023-07-20T11:26:52;20.00;99.90
22224;DHT22;11281;52.194;21.006;2023-07-20T11:30:54;19.80;99.90
22224;DHT22;11281;52.194;21.006;2023-07-20T11:34:55;20.20;99.90
22224;DHT22;11281;52.194;21.006;2023-07-20T11:38:58;19.80;99.90
22224;DHT22;11281;52.194;21.006;2023-07-20T11:43:01;19.40;99.90
22224;DHT22;11281;52.194;21.006;2023-07-20T11:47:12;19.00;99.90
22224;DHT22;11281;52.194;21.006;2023-07-20T11:51:17;19.10;99.90
22224;DHT22;11281;52.194;21.006;2023-07-20T11:55:19;19.60;99.90
22224;DHT22;11281;52.194;21.006;2023-07-20T11:59:20;20.50;99.90
22224;DHT22;11281;52.194;21.006;2023-07-20T12:03:22;20.80;99.90
22224;DHT22;11281;52.194;21.006;2023-07-20T12:07:28;20.60;99.90
22224;DHT22;11281;52.194;21.006;2023-07-20T12:11:37;20.20;99.90
22224;DHT22;11281;52.194;21.006;2023-07-20T12:15:39;20.00;99.90
22224;DHT22;11281;52.194;21.006;2023-07-20T12:19:40;19.80;99.90
22224;DHT22;11281;52.194;21.006;2023-07-20T12:23:42;19.70;99.90
22224;DHT22;11281;52.194;21.006;2023-07-20T12:27:45;19.70;99.90
22224;DHT22;11281;52.194;21.006;2023-07-20T12:31:46;19.70;99.90
22224;DHT22;11281;52.194;21.006;2023-07-20T12:35:49;19.50;99.90
22224;DHT22;11281;52.194;21.006;2023-07-20T12:39:51;19.70;99.90
22224;DHT22;11281;52.194;21.006;2023-07-20T12:43:52;19.60;99.90
22224;DHT22;11281;52.194;21.006;2023-07-20T12:47:54;19.60;99.90
22224;DHT22;11281;52.194;21.006;2023-07-20T12:51:56;19.80;99.90
22224;DHT22;11281;52.194;21.006;2023-07-20T12:55:59;20.00;99.90
22224;DHT22;11281;52.194;21.006;2023-07-20T13:00:02;19.80;99.90
22224;DHT22;11281;52.194;21.006;2023-07-20T13:04:05;19.70;99.90
22224;DHT22;11281;52.194;21.006;2023-07-20T13:08:07;19.70;99.90
22224;DHT22;11281;52.194;21.006;2023-07-20T13:12:08;19.60;99.90
22224;DHT22;11281;52.194;21.006;2023-07-20T13:16:10;20.20;99.90
22224;DHT22;11281;52.194;21.006;2023-07-20T13:20:12;20.80;99.90
22224;DHT22;11281;52.194;21.006;2023-07-20T13:24:14;20.50;99.90
22224;DHT22;11281;52.194;21.006;2023-07-20T13:28:16;20.50;99.90
22224;DHT22;11281;52.194;21.006;2023-07-20T13:32:18;20.60;99.90
22224;DHT22;11281;52.194;21.006;2023-07-20T13:36:20;20.80;99.90
22224;DHT22;11281;52.194;21.006;2023-07-20T13:40:22;20.70;99.90
22224;DHT22;11281;52.194;21.006;2023-07-20T13:44:24;20.70;99.90
22224;DHT22;11281;52.194;21.006;2023-07-20T13:48:25;20.90;99.90
22224;DHT22;11281;52.194;21.006;2023-07-20T13:52:28;21.00;99.90
22224;DHT22;11281;52.194;21.006;2023-07-20T13:56:30;20.80;99.90
22224;DHT22;11281;52.194;21.006;2023-07-20T14:00:32;20.90;99.90
22224;DHT22;11281;52.194;21.006;2023-07-20T14:04:34;21.00;99.90
22224;DHT22;11281;52.194;21.006;2023-07-20T14:08:35;21.40;99.90
22224;DHT22;11281;52.194;21.006;2023-07-20T14:12:37;21.10;99.90
22224;DHT22;11281;52.194;21.006;2023-07-20T14:16:39;20.70;99.90
22224;DHT22;11281;52.194;21.006;2023-07-20T14:20:40;20.30;99.90
22224;DHT22;11281;52.194;21.006;2023-07-20T14:24:42;19.50;99.90
22224;DHT22;11281;52.194;21.006;2023-07-20T14:28:43;18.50;99.90
22224;DHT22;11281;52.194;21.006;2023-07-20T14:32:45;17.60;99.90
22224;DHT22;11281;52.194;21.006;2023-07-20T14:36:46;17.00;99.90
22224;DHT22;11281;52.194;21.006;2023-07-20T14:40:48;16.50;99.90
22224;DHT22;11281;52.194;21.006;2023-07-20T14:44:49;16.50;99.90
22224;DHT22;11281;52.194;21.006;2023-07-20T14:48:51;16.10;99.90
22224;DHT22;11281;52.194;21.006;2023-07-20T14:52:53;16.10;99.90
22224;DHT22;11281;52.194;21.006;2023-07-20T14:56:55;15.90;99.90
22224;DHT22;11281;52.194;21.006;2023-07-20T15:00:57;15.70;99.90
22224;DHT22;11281;52.194;21.006;2023-07-20T15:04:59;15.60;99.90
22224;DHT22;11281;52.194;21.006;2023-07-20T15:09:00;15.50;99.90
22224;DHT22;11281;52.194;21.006;2023-07-20T15:13:02;15.30;99.90
22224;DHT22;11281;52.194;21.006;2023-07-20T15:17:04;15.40;99.90
22224;DHT22;11281;52.194;21.006;2023-07-20T15:21:06;15.30;99.90
22224;DHT22;11281;52.194;21.006;2023-07-20T15:25:09;15.20;99.90
22224;DHT22;11281;52.194;21.006;2023-07-20T15:29:13;15.10;99.90
22224;DHT22;11281;52.194;21.006;2023-07-20T15:33:14;15.20;99.90
22224;DHT22;11281;52.194;21.006;2023-07-20T15:37:16;15.50;99.90
22224;DHT22;11281;52.194;21.006;2023-07-20T15:41:17;15.60;99.90
22224;DHT22;11281;52.194;21.006;2023-07-20T15:45:20;15.50;99.90
22224;DHT22;11281;52.194;21.006;2023-07-20T15:49:23;15.40;99.90
22224;DHT22;11281;52.194;21.006;2023-07-20T15:53:25;15.10;99.90
22224;DHT22;11281;52.194;21.006;2023-07-20T15:57:27;14.80;99.90
22224;DHT22;11281;52.194;21.006;2023-07-20T16:01:30;14.70;99.90
22224;DHT22;11281;52.194;21.006;2023-07-20T16:05:35;14.70;99.90
22224;DHT22;11281;52.194;21.006;2023-07-20T16:09:38;14.60;99.90
22224;DHT22;11281;52.194;21.006;2023-07-20T16:13:39;14.40;99.90
22224;DHT22;11281;52.194;21.006;2023-07-20T16:17:41;14.40;99.90
22224;DHT22;11281;52.194;21.006;2023-07-20T16:21:42;14.20;99.90
22224;DHT22;11281;52.194;21.006;2023-07-20T16:25:47;14.20;99.90
22224;DHT22;11281;52.194;21.006;2023-07-20T16:29:49;14.30;99.90
22224;DHT22;11281;52.194;21.006;2023-07-20T16:33:51;14.40;99.90
22224;DHT22;11281;52.194;21.006;2023-07-20T16:37:55;14.30;99.90
22224;DHT22;11281;52.194;21.006;2023-07-20T16:41:57;14.30;99.90
22224;DHT22;11281;52.194;21.006;2023-07-20T16:46:00;14.30;99.90
22224;DHT22;11281;52.194;21.006;2023-07-20T16:50:03;14.70;99.90
22224;DHT22;11281;52.194;21.006;2023-07-20T16:54:06;15.00;99.90
22224;DHT22;11281;52.194;21.006;2023-07-20T16:58:09;15.00;99.90
22224;DHT22;11281;52.194;21.006;2023-07-20T17:02:10;15.50;99.90
22224;DHT22;11281;52.194;21.006;2023-07-20T17:06:12;15.70;99.90
22224;DHT22;11281;52.194;21.006;2023-07-20T17:10:15;15.70;99.90
22224;DHT22;11281;52.194;21.006;2023-07-20T17:14:17;15.90;99.90
22224;DHT22;11281;52.194;21.006;2023-07-20T17:18:18;15.90;99.90
22224;DHT22;11281;52.194;21.006;2023-07-20T17:22:20;15.70;99.90
22224;DHT22;11281;52.194;21.006;2023-07-20T17:26:22;15.50;99.90
22224;DHT22;11281;52.194;21.006;2023-07-20T17:30:25;15.70;99.90
22224;DHT22;11281;52.194;21.006;2023-07-20T17:34:26;15.60;99.90
22224;DHT22;11281;52.194;21.006;2023-07-20T17:38:29;15.50;99.90
22224;DHT22;11281;52.194;21.006;2023-07-20T17:42:30;15.50;99.90
22224;DHT22;11281;52.194;21.006;2023-07-20T17:46:32;15.50;99.90
22224;DHT22;11281;52.194;21.006;2023-07-20T17:50:34;15.40;99.90
22224;DHT22;11281;52.194;21.006;2023-07-20T17:54:35;15.30;99.90
22224;DHT22;11281;52.194;21.006;2023-07-20T17:58:36;15.30;99.90
22224;DHT22;11281;52.194;21.006;2023-07-20T18:02:38;15.30;99.90
22224;DHT22;11281;52.194;21.006;2023-07-20T18:06:40;15.20;99.90
22224;DHT22;11281;52.194;21.006;2023-07-20T18:10:41;15.10;99.90
22224;DHT22;11281;52.194;21.006;2023-07-20T18:14:44;14.80;99.90
22224;DHT22;11281;52.194;21.006;2023-07-20T18:18:45;14.60;99.90
22224;DHT22;11281;52.194;21.006;2023-07-20T18:22:47;14.60;99.90
22224;DHT22;11281;52.194;21.006;2023-07-20T18:26:49;14.50;99.90
22224;DHT22;11281;52.194;21.006;2023-07-20T18:30:51;14.40;99.90
22224;DHT22;11281;52.194;21.006;2023-07-20T18:34:53;14.30;99.90
22224;DHT22;11281;52.194;21.006;2023-07-20T18:38:55;14.20;99.90
22224;DHT22;11281;52.194;21.006;2023-07-20T18:42:57;14.20;99.90
22224;DHT22;11281;52.194;21.006;2023-07-20T18:47:00;14.10;99.90
22224;DHT22;11281;52.194;21.006;2023-07-20T18:51:01;14.00;99.90
22224;DHT22;11281;52.194;21.006;2023-07-20T18:55:05;14.00;99.90
22224;DHT22;11281;52.194;21.006;2023-07-20T18:59:07;14.00;99.90
22224;DHT22;11281;52.194;21.006;2023-07-20T19:03:09;13.90;99.90
22224;DHT22;11281;52.194;21.006;2023-07-20T19:07:11;13.90;99.90
22224;DHT22;11281;52.194;21.006;2023-07-20T19:11:12;13.90;99.90
22224;DHT22;11281;52.194;21.006;2023-07-20T19:15:14;14.00;99.90
22224;DHT22;11281;52.194;21.006;2023-07-20T19:19:16;13.90;99.90
22224;DHT22;11281;52.194;21.006;2023-07-20T19:23:21;13.90;99.90
22224;DHT22;11281;52.194;21.006;2023-07-20T19:27:23;13.80;99.90
22224;DHT22;11281;52.194;21.006;2023-07-20T19:31:24;13.80;99.90
22224;DHT22;11281;52.194;21.006;2023-07-20T19:35:25;13.70;99.90
22224;DHT22;11281;52.194;21.006;2023-07-20T19:39:27;13.70;99.90
22224;DHT22;11281;52.194;21.006;2023-07-20T19:43:29;13.70;99.90
22224;DHT22;11281;52.194;21.006;2023-07-20T19:47:31;13.70;99.90
22224;DHT22;11281;52.194;21.006;2023-07-20T19:51:33;13.60;99.90
22224;DHT22;11281;52.194;21.006;2023-07-20T19:55:37;13.60;99.90
22224;DHT22;11281;52.194;21.006;2023-07-20T19:59:39;13.50;99.90
22224;DHT22;11281;52.194;21.006;2023-07-20T20:03:41;13.50;99.90
22224;DHT22;11281;52.194;21.006;2023-07-20T20:07:43;13.50;99.90
22224;DHT22;11281;52.194;21.006;2023-07-20T20:11:46;13.40;99.90
22224;DHT22;11281;52.194;21.006;2023-07-20T20:15:48;13.40;99.90
22224;DHT22;11281;52.194;21.006;2023-07-20T20:19:49;13.50;99.90
22224;DHT22;11281;52.194;21.006;2023-07-20T20:23:52;13.50;99.90
22224;DHT22;11281;52.194;21.006;2023-07-20T20:27:57;13.40;99.90
22224;DHT22;11281;52.194;21.006;2023-07-20T20:31:58;13.40;99.90
22224;DHT22;11281;52.194;21.006;2023-07-20T20:36:00;13.40;99.90
22224;DHT22;11281;52.194;21.006;2023-07-20T20:40:03;13.30;99.90
22224;DHT22;11281;52.194;21.006;2023-07-20T20:44:05;13.30;99.90
22224;DHT22;11281;52.194;21.006;2023-07-20T20:48:06;13.20;99.90
22224;DHT22;11281;52.194;21.006;2023-07-20T20:52:08;13.30;99.90
22224;DHT22;11281;52.194;21.006;2023-07-20T20:56:10;13.20;99.90
22224;DHT22;11281;52.194;21.006;2023-07-20T21:00:12;13.20;99.90
22224;DHT22;11281;52.194;21.006;2023-07-20T21:04:15;13.30;99.90
22224;DHT22;11281;52.194;21.006;2023-07-20T21:08:17;13.20;99.90
22224;DHT22;11281;52.194;21.006;2023-07-20T21:12:18;13.10;99.90
22224;DHT22;11281;52.194;21.006;2023-07-20T21:16:20;13.20;99.90
22224;DHT22;11281;52.194;21.006;2023-07-20T21:20:24;13.20;99.90
22224;DHT22;11281;52.194;21.006;2023-07-20T21:24:26;13.20;99.90
22224;DHT22;11281;52.194;21.006;2023-07-20T21:28:28;13.20;99.90
22224;DHT22;11281;52.194;21.006;2023-07-20T21:32:29;13.10;99.90
22224;DHT22;11281;52.194;21.006;2023-07-20T21:36:34;13.00;99.90
22224;DHT22;11281;52.194;21.006;2023-07-20T21:40:37;13.00;99.90
22224;DHT22;11281;52.194;21.006;2023-07-20T21:44:39;13.10;99.90
22224;DHT22;11281;52.194;21.006;2023-07-20T21:48:41;13.10;99.90
22224;DHT22;11281;52.194;21.006;2023-07-20T21:52:45;13.10;99.90
22224;DHT22;11281;52.194;21.006;2023-07-20T21:56:47;13.10;99.90
22224;DHT22;11281;52.194;21.006;2023-07-20T22:00:49;13.00;99.90
22224;DHT22;11281;52.194;21.006;2023-07-20T22:04:57;12.90;99.90
22224;DHT22;11281;52.194;21.006;2023-07-20T22:08:59;12.90;99.90
22224;DHT22;11281;52.194;21.006;2023-07-20T22:13:00;12.90;99.90
22224;DHT22;11281;52.194;21.006;2023-07-20T22:17:02;12.90;99.90
22224;DHT22;11281;52.194;21.006;2023-07-20T22:21:04;12.80;99.90
22224;DHT22;11281;52.194;21.006;2023-07-20T22:25:06;12.80;99.90
22224;DHT22;11281;52.194;21.006;2023-07-20T22:29:07;12.80;99.90
22224;DHT22;11281;52.194;21.006;2023-07-20T22:33:10;12.80;99.90
22224;DHT22;11281;52.194;21.006;2023-07-20T22:37:12;12.80;99.90
22224;DHT22;11281;52.194;21.006;2023-07-20T22:41:13;12.70;99.90
22224;DHT22;11281;52.194;21.006;2023-07-20T22:45:15;12.70;99.90
22224;DHT22;11281;52.194;21.006;2023-07-20T22:49:17;12.70;99.90
22224;DHT22;11281;52.194;21.006;2023-07-20T22:53:19;12.70;99.90
22224;DHT22;11281;52.194;21.006;2023-07-20T22:57:22;12.60;99.90
22224;DHT22;11281;52.194;21.006;2023-07-20T23:01:24;12.60;99.90
22224;DHT22;11281;52.194;21.006;2023-07-20T23:05:26;12.60;99.90
22224;DHT22;11281;52.194;21.006;2023-07-20T23:09:28;12.50;99.90
22224;DHT22;11281;52.194;21.006;2023-07-20T23:13:29;12.40;99.90
22224;DHT22;11281;52.194;21.006;2023-07-20T23:17:32;12.40;99.90
22224;DHT22;11281;52.194;21.006;2023-07-20T23:21:34;12.40;99.90
22224;DHT22;11281;52.194;21.006;2023-07-20T23:25:35;12.30;99.90
22224;DHT22;11281;52.194;21.006;2023-07-20T23:29:37;12.20;99.90
22224;DHT22;11281;52.194;21.006;2023-07-20T23:33:39;12.20;99.90
22224;DHT22;11281;52.194;21.006;2023-07-20T23:37:41;12.10;99.90
22224;DHT22;11281;52.194;21.006;2023-07-20T23:41:43;12.00;99.90
22224;DHT22;11281;52.194;21.006;2023-07-20T23:45:45;12.00;99.90
22224;DHT22;11281;52.194;21.006;2023-07-20T23:49:46;11.90;99.90
22224;DHT22;11281;52.194;21.006;2023-07-20T23:53:49;11.80;99.90
22224;DHT22;11281;52.194;21.006;2023-07-20T23:57:53;11.80;99.90
